Time;durP1;ratioP1;P1;durP2;ratioP2;P2;SDS_P1;SDS_P2;PMS_P1;PMS_P2;Temp;Humidity;BMP_temperature;BMP_pressure;BME280_temperature;BME280_humidity;BME280_pressure;Samples;Min_cycle;Max_cycle;Signal;HPM_P1;HPM_P2
2023/03/18 00:00:10;;;;;;;5.57;2.17;;;;;;;-146.25;68.08;52246.53;2104587;28;35951;-72
2023/03/18 00:01:13;;;;;;;6.63;2.05;;;;;;;-146.25;67.40;52197.88;2105333;28;22176;-72
2023/03/18 00:02:17;;;;;;;4.53;2.00;;;;;;;-146.25;67.66;52238.44;2106955;28;37872;-72
2023/03/18 00:03:19;;;;;;;6.53;2.38;;;;;;;-146.25;67.82;52228.28;2105140;28;20999;-72
2023/03/18 00:04:20;;;;;;;5.25;2.05;;;;;;;-146.25;67.47;52220.19;2104572;28;38284;-72
2023/03/18 00:05:22;;;;;;;3.92;2.17;;;;;;;-146.25;67.42;52218.16;2104669;28;28592;-71
2023/03/18 00:06:24;;;;;;;6.10;2.00;;;;;;;-146.25;67.34;52185.72;2103832;28;21080;-71
2023/03/18 00:07:26;;;;;;;6.53;1.92;;;;;;;-146.25;67.53;52222.22;2105258;28;32653;-73
2023/03/18 00:08:28;;;;;;;4.70;2.10;;;;;;;-146.25;67.03;52203.97;2104704;28;33243;-71
2023/03/18 00:09:30;;;;;;;6.03;2.25;;;;;;;-146.25;67.42;52212.06;2104128;28;36458;-73
2023/03/18 00:10:33;;;;;;;4.78;1.98;;;;;;;-146.25;67.14;52197.88;2104313;28;35616;-72
2023/03/18 00:11:36;;;;;;;4.78;1.98;;;;;;;-146.25;66.89;52185.72;2103812;28;33351;-72
2023/03/18 00:12:40;;;;;;;4.30;1.92;;;;;;;-146.25;67.24;52208.03;2104624;28;31822;-72
2023/03/18 00:13:42;;;;;;;5.32;2.33;;;;;;;-146.25;66.95;52201.94;2103671;28;34318;-72
2023/03/18 00:14:46;;;;;;;5.70;1.63;;;;;;;-146.25;66.35;52216.13;2104118;28;33471;-71
2023/03/18 00:15:50;;;;;;;7.45;2.17;;;;;;;-146.25;66.38;52206.00;2113012;28;32460;-72
2023/03/18 00:16:55;;;;;;;5.68;2.22;;;;;;;-146.25;66.24;52222.22;2112982;28;31176;-72
2023/03/18 00:17:58;;;;;;;5.63;2.03;;;;;;;-146.25;66.63;52248.56;2113199;28;31716;-72
2023/03/18 00:19:03;;;;;;;5.45;2.30;;;;;;;-146.25;66.90;52214.09;2112541;28;37016;-71
2023/03/18 00:20:06;;;;;;;4.95;2.00;;;;;;;-146.25;66.53;52201.94;2113121;28;27132;-72
2023/03/18 00:21:08;;;;;;;4.60;1.77;;;;;;;-146.25;66.58;52201.94;2112844;28;35458;-72
2023/03/18 00:22:10;;;;;;;4.63;2.20;;;;;;;-146.25;66.79;52201.94;2112509;28;39478;-72
2023/03/18 00:23:12;;;;;;;3.63;2.22;;;;;;;-146.25;66.71;52214.09;2113096;28;32134;-72
2023/03/18 00:24:14;;;;;;;3.55;2.00;;;;;;;-146.25;66.74;52201.94;2104462;28;20129;-72
2023/03/18 00:25:16;;;;;;;3.50;1.90;;;;;;;-146.25;67.18;52224.25;2104294;28;35396;-72
2023/03/18 00:26:18;;;;;;;5.90;1.98;;;;;;;-146.25;67.32;52206.00;2105220;28;20044;-72
2023/03/18 00:27:22;;;;;;;6.03;2.30;;;;;;;-146.25;67.57;52214.09;2104865;28;20159;-71
2023/03/18 00:28:24;;;;;;;5.07;2.13;;;;;;;-146.25;67.82;52208.03;2113230;28;20028;-73
2023/03/18 00:29:26;;;;;;;3.92;1.80;;;;;;;-146.25;67.29;52218.16;2112761;28;28787;-72
2023/03/18 00:30:28;;;;;;;5.15;2.00;;;;;;;-146.25;67.58;52185.72;2112598;28;24020;-72
2023/03/18 00:31:30;;;;;;;6.43;2.10;;;;;;;-146.25;67.90;52173.56;2104871;28;28043;-73
2023/03/18 00:32:33;;;;;;;5.40;1.95;;;;;;;-146.25;67.65;52234.38;2106135;28;20079;-72
2023/03/18 00:33:42;;;;;;;3.42;2.08;;;;;;;-146.25;69.19;52240.47;2097574;28;20820;-72
2023/03/18 00:34:46;;;;;;;5.15;2.05;;;;;;;-146.25;69.69;52232.34;2097176;28;28010;-72
2023/03/18 00:35:48;;;;;;;5.43;2.22;;;;;;;-146.25;71.06;52203.97;2104669;28;26185;-72
2023/03/18 00:36:55;;;;;;;6.55;2.47;;;;;;;-146.25;71.03;52240.47;2095365;28;26203;-72
2023/03/18 00:37:59;;;;;;;5.47;2.10;;;;;;;-146.25;72.09;52212.06;2096870;28;20142;-72
2023/03/18 00:39:02;;;;;;;7.72;2.70;;;;;;;-146.25;72.63;52199.91;2095688;28;23101;-72
2023/03/18 00:40:19;;;;;;;5.10;2.60;;;;;;;-146.25;73.39;52214.09;2087590;28;20053;-72
2023/03/18 00:41:20;;;;;;;4.38;2.60;;;;;;;-146.25;73.65;52242.50;2098386;28;20094;-73
2023/03/18 00:42:23;;;;;;;5.90;2.42;;;;;;;-146.25;74.51;52232.34;2104804;28;20052;-73
2023/03/18 00:43:28;;;;;;;3.35;2.05;;;;;;;-146.25;75.01;52220.19;2104088;28;28018;-73
2023/03/18 00:44:32;;;;;;;4.57;2.20;;;;;;;-146.25;75.63;52210.03;2104536;28;26028;-72
2023/03/18 00:45:39;;;;;;;4.68;2.10;;;;;;;-146.25;76.15;52242.50;2104474;28;30049;-73
2023/03/18 00:46:43;;;;;;;6.68;2.30;;;;;;;-146.25;76.81;52250.59;2104818;28;20226;-72
2023/03/18 00:47:47;;;;;;;4.68;2.30;;;;;;;-146.25;77.48;52226.25;2104486;28;31083;-72
2023/03/18 00:48:51;;;;;;;4.80;2.20;;;;;;;-146.25;77.14;52206.00;2104906;28;27410;-72
2023/03/18 00:49:53;;;;;;;5.95;2.13;;;;;;;-146.25;77.59;52208.03;2104713;28;25035;-72
2023/03/18 00:50:54;;;;;;;4.32;2.10;;;;;;;-146.25;78.15;52203.97;2104736;28;25113;-72
2023/03/18 00:51:56;;;;;;;6.28;2.88;;;;;;;-146.25;77.98;52199.91;2104567;28;20040;-72
2023/03/18 00:52:59;;;;;;;4.60;2.20;;;;;;;-146.25;77.79;52203.97;2104732;28;24735;-72
2023/03/18 00:54:06;;;;;;;5.40;2.53;;;;;;;-146.25;77.72;52218.16;2094945;28;29649;-72
2023/03/18 00:55:09;;;;;;;4.95;2.25;;;;;;;-146.25;78.62;52201.94;2096207;28;30342;-72
2023/03/18 00:56:13;;;;;;;5.30;2.30;;;;;;;-146.25;78.85;52185.72;2086913;28;33846;-72
2023/03/18 00:57:15;;;;;;;5.35;2.33;;;;;;;-146.25;78.09;52228.28;2080131;28;20053;-71
2023/03/18 00:58:17;;;;;;;5.75;2.60;;;;;;;-146.25;78.76;52222.22;2087377;28;20823;-72
2023/03/18 00:59:19;;;;;;;5.32;2.55;;;;;;;-146.25;79.39;52187.75;2087455;28;20148;-73
2023/03/18 01:00:21;;;;;;;5.07;2.25;;;;;;;-146.25;78.89;52203.97;2094778;28;39202;-72
2023/03/18 01:01:24;;;;;;;8.15;2.60;;;;;;;-146.25;79.21;52214.09;2096748;28;20048;-70
2023/03/18 01:02:28;;;;;;;5.25;2.67;;;;;;;-146.25;79.78;52195.84;2097045;28;20041;-72
2023/03/18 01:03:32;;;;;;;5.68;2.47;;;;;;;-146.25;79.78;52189.78;2106393;28;20044;-71
2023/03/18 01:04:34;;;;;;;4.95;2.17;;;;;;;-146.25;79.95;52189.78;2105053;28;23593;-72
2023/03/18 01:05:37;;;;;;;4.47;2.40;;;;;;;-146.25;80.68;52238.44;2097583;28;20037;-71
2023/03/18 01:06:39;;;;;;;5.60;2.00;;;;;;;-146.25;80.14;52193.81;2097224;28;20041;-72
2023/03/18 01:07:44;;;;;;;6.28;2.22;;;;;;;-146.25;80.08;52250.59;2097204;28;20048;-71
2023/03/18 01:08:49;;;;;;;3.72;2.28;;;;;;;-146.25;79.98;52240.47;2097932;28;20052;-73
2023/03/18 01:09:53;;;;;;;7.30;2.70;;;;;;;-146.25;80.27;52230.31;2105917;28;22814;-71
2023/03/18 01:10:56;;;;;;;6.07;2.40;;;;;;;-146.25;80.66;52197.88;2105816;28;28665;-72
2023/03/18 01:11:58;;;;;;;5.28;2.30;;;;;;;-146.25;81.13;52250.59;2097567;28;20037;-72
2023/03/18 01:13:04;;;;;;;5.25;2.28;;;;;;;-146.25;80.81;52226.25;2088793;28;20037;-71
2023/03/18 01:14:06;;;;;;;4.57;2.50;;;;;;;-146.25;81.23;52274.94;2089084;28;22010;-72
2023/03/18 01:15:15;;;;;;;6.13;2.35;;;;;;;-146.25;81.09;52191.81;2089731;28;20049;-72
2023/03/18 01:16:18;;;;;;;5.00;2.42;;;;;;;-146.25;81.63;52199.91;2089439;28;30104;-72
2023/03/18 01:17:20;;;;;;;4.53;2.17;;;;;;;-146.25;81.10;52216.13;2088448;28;25926;-72
2023/03/18 01:18:25;;;;;;;5.80;2.63;;;;;;;-146.25;81.31;52206.00;2097560;28;20064;-72
2023/03/18 01:19:29;;;;;;;8.18;2.67;;;;;;;-146.25;81.75;52206.00;2096932;28;21080;-72
2023/03/18 01:20:31;;;;;;;6.03;2.60;;;;;;;-146.25;81.50;52228.28;2097434;28;20183;-71
2023/03/18 01:21:33;;;;;;;8.07;2.42;;;;;;;-146.25;81.44;52224.25;2096777;28;20882;-71
2023/03/18 01:22:36;;;;;;;8.93;2.90;;;;;;;-146.25;82.28;52268.84;2097145;28;20045;-72
2023/03/18 01:23:38;;;;;;;4.97;2.45;;;;;;;-146.25;81.52;52218.16;2097384;28;20155;-71
2023/03/18 01:24:41;;;;;;;6.90;2.45;;;;;;;-146.25;81.67;52230.31;2096712;28;21017;-72
2023/03/18 01:25:44;;;;;;;6.55;2.33;;;;;;;-146.25;81.64;52206.00;2097367;28;20865;-71
2023/03/18 01:26:50;;;;;;;4.47;2.70;;;;;;;-146.25;81.62;52201.94;2097362;28;20081;-70
2023/03/18 01:27:55;;;;;;;6.15;2.42;;;;;;;-146.25;81.16;52230.31;2089130;28;20091;-72
2023/03/18 01:28:57;;;;;;;6.18;2.70;;;;;;;-146.25;81.08;52218.16;2088058;28;20887;-71
2023/03/18 01:29:58;;;;;;;7.63;2.90;;;;;;;-146.25;80.66;52228.28;2089389;28;20579;-72
2023/03/18 01:31:01;;;;;;;6.63;3.00;;;;;;;-146.25;80.99;52260.72;2094140;28;20095;-72
2023/03/18 01:32:03;;;;;;;7.47;2.70;;;;;;;-146.25;81.70;52238.44;2094636;28;20533;-72
2023/03/18 01:33:06;;;;;;;5.55;2.25;;;;;;;-146.25;81.70;52228.28;2097319;28;21788;-71
2023/03/18 01:34:08;;;;;;;5.50;2.60;;;;;;;-146.25;81.44;52214.09;2104994;28;20131;-71
2023/03/18 01:35:21;;;;;;;7.03;2.58;;;;;;;-146.25;81.76;52220.19;2098874;28;20060;-71
2023/03/18 01:36:27;;;;;;;5.40;2.55;;;;;;;-146.25;81.35;52234.38;2097279;28;20867;-72
2023/03/18 01:37:38;;;;;;;5.68;2.65;;;;;;;-146.25;81.05;52254.66;2098576;28;20153;-71
2023/03/18 01:38:45;;;;;;;5.50;2.78;;;;;;;-146.25;81.74;52206.00;2097510;28;20502;-72
2023/03/18 01:39:48;;;;;;;6.90;2.80;;;;;;;-146.25;81.45;52246.53;2097317;28;20054;-72
2023/03/18 01:40:58;;;;;;;4.95;2.35;;;;;;;-146.25;81.26;52230.31;2105313;28;20041;-72
2023/03/18 01:42:00;;;;;;;4.30;2.72;;;;;;;-146.25;81.42;52250.59;2096235;28;20104;-70
2023/03/18 01:43:22;;;;;;;5.05;2.63;;;;;;;-146.25;81.28;52222.22;2105068;28;20059;-72
2023/03/18 01:44:26;;;;;;;5.72;2.20;;;;;;;-146.25;81.88;52220.19;2099961;28;20319;-72
2023/03/18 01:45:33;;;;;;;8.48;2.13;;;;;;;-146.25;81.32;52208.03;2105964;28;20945;-72
2023/03/18 01:46:40;;;;;;;6.03;2.30;;;;;;;-146.25;81.30;52226.25;2105199;28;20111;-72
2023/03/18 01:47:43;;;;;;;5.15;2.25;;;;;;;-146.25;81.11;52201.94;2104504;28;20083;-71
2023/03/18 01:48:47;;;;;;;5.75;2.80;;;;;;;-146.25;80.87;52212.06;2105482;28;20044;-72
2023/03/18 01:49:51;;;;;;;3.42;2.33;;;;;;;-146.25;81.42;52236.41;2105297;28;20219;-72
2023/03/18 01:51:02;;;;;;;5.28;2.85;;;;;;;-146.25;81.57;52228.28;2105903;28;20036;-71
2023/03/18 01:52:11;;;;;;;5.72;2.30;;;;;;;-146.25;81.20;52244.50;2105165;28;22564;-72
2023/03/18 01:53:16;;;;;;;6.72;2.42;;;;;;;-146.25;81.05;52197.88;2107678;28;30615;-72
2023/03/18 01:54:18;;;;;;;3.97;2.60;;;;;;;-146.25;81.24;52208.03;2105755;28;20032;-72
2023/03/18 01:55:26;;;;;;;5.47;2.15;;;;;;;-146.25;81.11;52234.38;2105803;28;20048;-72
2023/03/18 01:56:28;;;;;;;7.60;2.35;;;;;;;-146.25;80.90;52244.50;2105217;28;30698;-72
2023/03/18 01:57:32;;;;;;;6.40;2.75;;;;;;;-146.25;81.37;52238.44;2104785;28;20121;-72
2023/03/18 01:58:44;;;;;;;4.40;2.20;;;;;;;-146.25;81.10;52234.38;2106811;28;20155;-72
2023/03/18 01:59:49;;;;;;;6.18;2.42;;;;;;;-146.25;80.76;52230.31;2098669;28;20134;-73
2023/03/18 02:01:14;;;;;;;6.38;2.63;;;;;;;-146.25;80.53;52232.34;2085561;28;20046;-72
2023/03/18 02:02:17;;;;;;;6.50;2.63;;;;;;;-146.25;80.66;52260.72;2087005;28;33407;-72
2023/03/18 02:03:21;;;;;;;7.85;2.88;;;;;;;-146.25;80.82;52238.44;2088792;28;20129;-72
2023/03/18 02:04:29;;;;;;;7.15;2.30;;;;;;;-146.25;80.59;52236.41;2089174;28;20045;-72
2023/03/18 02:05:32;;;;;;;5.03;2.35;;;;;;;-146.25;80.81;52189.78;2080735;28;20942;-72
2023/03/18 02:06:33;;;;;;;7.78;2.53;;;;;;;-146.25;80.30;52252.63;2088164;28;28465;-73
2023/03/18 02:07:36;;;;;;;5.20;2.13;;;;;;;-146.25;80.92;52232.34;2089001;28;20803;-73
2023/03/18 02:08:39;;;;;;;6.53;2.80;;;;;;;-146.25;80.68;52276.97;2088901;28;20033;-73
2023/03/18 02:09:42;;;;;;;6.43;2.28;;;;;;;-146.25;80.69;52254.66;2080091;28;20524;-72
2023/03/18 02:10:45;;;;;;;6.40;2.70;;;;;;;-146.25;80.75;52224.25;2089315;28;20830;-73
2023/03/18 02:11:48;;;;;;;7.60;2.65;;;;;;;-146.25;80.61;52240.47;2096253;28;20048;-72
2023/03/18 02:13:01;;;;;;;6.13;2.42;;;;;;;-146.25;80.36;52234.38;2096119;28;20635;-72
2023/03/18 02:14:13;;;;;;;6.25;2.53;;;;;;;-146.25;80.64;52222.22;2105074;28;20041;-73
2023/03/18 02:15:21;;;;;;;5.45;2.45;;;;;;;-146.25;80.95;52230.31;2096638;28;31107;-72
2023/03/18 02:16:29;;;;;;;5.55;2.47;;;;;;;-146.25;80.75;52248.56;2090175;28;20045;-72
2023/03/18 02:17:39;;;;;;;7.30;2.78;;;;;;;-146.25;80.47;52242.50;2088263;28;20077;-73
2023/03/18 02:18:48;;;;;;;7.85;2.97;;;;;;;-146.25;80.81;52226.25;2088637;28;20143;-72
2023/03/18 02:19:53;;;;;;;5.75;2.75;;;;;;;-146.25;80.60;52226.25;2097397;28;20029;-72
2023/03/18 02:21:19;;;;;;;5.47;2.60;;;;;;;-146.25;80.48;52250.59;2096290;28;20116;-73
2023/03/18 02:22:39;;;;;;;5.20;2.58;;;;;;;-146.25;80.56;52260.72;2098548;28;20049;-72
2023/03/18 02:24:04;;;;;;;4.97;2.47;;;;;;;-146.25;79.91;52222.22;2096540;28;20038;-72
2023/03/18 02:25:29;;;;;;;7.25;2.83;;;;;;;-146.25;79.97;52244.50;2097437;28;20799;-73
2023/03/18 02:26:52;;;;;;;4.65;2.60;;;;;;;-146.25;80.01;52210.03;2099631;28;27781;-73
2023/03/18 02:28:08;;;;;;;8.02;2.85;;;;;;;-146.25;79.97;52203.97;2109014;28;20202;-73
2023/03/18 02:29:13;;;;;;;7.75;2.85;;;;;;;-146.25;80.29;52234.38;2106827;28;20794;-73
2023/03/18 02:30:30;;;;;;;5.78;2.72;;;;;;;-146.25;80.28;52291.16;2097731;28;20242;-73
2023/03/18 02:31:36;;;;;;;4.22;2.83;;;;;;;-146.25;79.87;52242.50;2089666;28;20147;-73
2023/03/18 02:32:40;;;;;;;5.75;2.60;;;;;;;-146.25;80.33;52210.03;2081559;28;22407;-73
2023/03/18 02:33:46;;;;;;;5.22;2.50;;;;;;;-146.25;80.74;52197.88;2089686;28;20164;-73
2023/03/18 02:34:48;;;;;;;5.90;3.00;;;;;;;-146.25;80.40;52240.47;2104693;28;26722;-73
2023/03/18 02:35:59;;;;;;;7.78;3.15;;;;;;;-146.25;80.33;52232.34;2096849;28;20071;-73
2023/03/18 02:37:06;;;;;;;6.75;2.78;;;;;;;-146.25;80.46;52222.22;2081365;28;20164;-72
2023/03/18 02:38:10;;;;;;;9.88;3.05;;;;;;;-146.25;80.05;52234.38;2090555;28;20774;-72
2023/03/18 02:39:16;;;;;;;6.90;2.78;;;;;;;-146.25;80.10;52203.97;2096588;28;20049;-73
2023/03/18 02:40:26;;;;;;;7.57;2.35;;;;;;;-146.25;80.48;52242.50;2088338;28;20049;-73
2023/03/18 02:41:34;;;;;;;5.47;2.50;;;;;;;-146.25;80.93;52193.81;2083251;28;20479;-73
2023/03/18 02:42:35;;;;;;;7.60;3.25;;;;;;;-146.25;80.60;52212.06;2096424;28;20110;-73
2023/03/18 02:43:38;;;;;;;7.38;2.78;;;;;;;-146.25;80.71;52218.16;2096598;28;20045;-72
2023/03/18 02:44:45;;;;;;;6.20;3.00;;;;;;;-146.25;80.43;52197.88;2104661;28;20040;-73
2023/03/18 02:46:50;;;;;;;7.35;2.95;;;;;;;-146.25;80.22;52206.00;2094036;28;20060;-73
2023/03/18 02:47:52;;;;;;;7.53;3.00;;;;;;;-146.25;80.60;52234.38;2095582;28;26430;-73
2023/03/18 02:48:56;;;;;;;7.55;3.17;;;;;;;-146.25;80.74;52242.50;2096523;28;20041;-73
2023/03/18 02:49:58;;;;;;;7.05;3.30;;;;;;;-146.25;80.84;52201.94;2096615;28;29212;-73
2023/03/18 02:51:00;;;;;;;7.13;3.22;;;;;;;-146.25;80.34;52218.16;2096522;28;20037;-73
2023/03/18 02:52:05;;;;;;;11.15;3.25;;;;;;;-146.25;80.98;52242.50;2096976;28;20033;-73
2023/03/18 02:53:07;;;;;;;6.90;3.15;;;;;;;-146.25;80.62;52248.56;2096565;28;20463;-73
2023/03/18 02:54:22;;;;;;;7.00;3.13;;;;;;;-146.25;80.27;52218.16;2096614;28;20033;-73
2023/03/18 02:55:26;;;;;;;7.65;2.92;;;;;;;-146.25;80.33;52214.09;2096623;28;20044;-73
2023/03/18 02:56:28;;;;;;;6.88;3.25;;;;;;;-146.25;80.47;52242.50;2088733;28;20084;-73
2023/03/18 02:57:30;;;;;;;5.65;3.17;;;;;;;-146.25;80.53;52208.03;2088151;28;21220;-73
2023/03/18 02:58:33;;;;;;;6.70;2.88;;;;;;;-146.25;80.51;52252.63;2096158;28;20168;-73
2023/03/18 02:59:36;;;;;;;8.20;3.25;;;;;;;-146.25;80.76;52244.50;2097281;28;20926;-73
2023/03/18 03:00:38;;;;;;;7.35;2.90;;;;;;;-146.25;80.39;52210.03;2096317;28;20117;-73
2023/03/18 03:01:44;;;;;;;9.38;3.22;;;;;;;-146.25;80.36;52236.41;2104938;28;20882;-73
2023/03/18 03:02:46;;;;;;;6.53;3.30;;;;;;;-146.25;80.26;52242.50;2105359;28;20040;-73
2023/03/18 03:03:49;;;;;;;6.20;3.13;;;;;;;-146.25;80.18;52250.59;2096524;28;20045;-73
2023/03/18 03:04:51;;;;;;;8.93;3.40;;;;;;;-146.25;80.01;52210.03;2088088;28;20037;-73
2023/03/18 03:05:55;;;;;;;7.47;3.15;;;;;;;-146.25;80.56;52236.41;2087994;28;20801;-73
2023/03/18 03:06:58;;;;;;;9.00;3.13;;;;;;;-146.25;80.44;52226.25;2080535;28;20913;-72
2023/03/18 03:08:14;;;;;;;7.18;3.03;;;;;;;-146.25;80.74;52228.28;2084192;28;20034;-72
2023/03/18 03:09:22;;;;;;;8.27;3.15;;;;;;;-146.25;80.60;52220.19;2097371;28;20052;-73
2023/03/18 03:10:26;;;;;;;6.82;3.15;;;;;;;-146.25;80.66;52214.09;2105968;28;20912;-73
2023/03/18 03:11:30;;;;;;;10.68;3.38;;;;;;;-146.25;80.81;52258.72;2096250;28;21008;-73
2023/03/18 03:12:41;;;;;;;;;;;;;;;-146.25;80.79;52210.03;2089889;28;20089;-73
2023/03/18 03:13:45;;;;;;;5.35;3.00;;;;;;;-146.25;80.85;52201.94;2088273;28;19925;-73
2023/03/18 03:14:48;;;;;;;6.97;3.22;;;;;;;-146.25;80.84;52246.53;2088460;28;20123;-73
2023/03/18 03:15:50;;;;;;;5.57;3.13;;;;;;;-146.25;80.73;52224.25;2096729;28;20135;-73
2023/03/18 03:16:52;;;;;;;5.80;3.00;;;;;;;-146.25;80.74;52220.19;2105356;28;23209;-73
2023/03/18 03:17:54;;;;;;;10.27;3.20;;;;;;;-146.25;80.95;52238.44;2105484;28;20049;-73
2023/03/18 03:18:56;;;;;;;8.00;3.60;;;;;;;-146.25;80.95;52185.72;2105329;28;24242;-73
2023/03/18 03:19:58;;;;;;;7.00;3.40;;;;;;;-146.25;80.94;52206.00;2105202;28;24707;-73
2023/03/18 03:21:00;;;;;;;8.32;3.50;;;;;;;-146.25;81.08;52268.84;2096087;28;25474;-73
2023/03/18 03:22:05;;;;;;;6.63;3.90;;;;;;;-146.25;81.18;52232.34;2096732;28;20081;-73
2023/03/18 03:23:11;;;;;;;9.70;3.85;;;;;;;-146.25;80.77;52220.19;2096178;28;20908;-73
2023/03/18 03:24:14;;;;;;;9.00;3.75;;;;;;;-146.25;81.35;52228.28;2088817;28;20037;-73
2023/03/18 03:25:16;;;;;;;7.32;3.60;;;;;;;-146.25;81.24;52236.41;2096326;28;24854;-73
2023/03/18 03:26:20;;;;;;;9.13;3.67;;;;;;;-146.25;81.66;52193.81;2104737;28;20041;-73
2023/03/18 03:27:22;;;;;;;9.02;3.10;;;;;;;-146.25;81.49;52238.44;2095791;28;33366;-73
2023/03/18 03:28:24;;;;;;;8.00;4.00;;;;;;;-146.25;81.52;52242.50;2087969;28;23365;-73
2023/03/18 03:29:26;;;;;;;9.88;3.65;;;;;;;-146.25;81.26;52199.91;2095916;28;20048;-72
2023/03/18 03:30:29;;;;;;;8.38;3.55;;;;;;;-146.25;81.65;52254.66;2104990;28;22288;-73
2023/03/18 03:31:31;;;;;;;11.15;4.22;;;;;;;-146.25;81.47;52210.03;2104720;28;29054;-73
2023/03/18 03:32:33;;;;;;;8.68;4.00;;;;;;;-146.25;81.69;52246.53;2104829;28;20436;-73
2023/03/18 03:33:40;;;;;;;6.82;3.42;;;;;;;-146.25;82.05;52252.63;2096689;28;25686;-72
2023/03/18 03:34:42;;;;;;;5.70;3.50;;;;;;;-146.25;81.93;52250.59;2096761;28;25845;-73
2023/03/18 03:35:46;;;;;;;7.85;3.90;;;;;;;-146.25;81.73;52258.72;2104232;28;24566;-73
2023/03/18 03:36:48;;;;;;;5.93;3.72;;;;;;;-146.25;82.05;52246.53;2105369;28;24740;-73
2023/03/18 03:37:50;;;;;;;9.98;3.92;;;;;;;-146.25;81.60;52248.56;2104810;28;20052;-73
2023/03/18 03:38:52;;;;;;;7.88;4.10;;;;;;;-146.25;82.01;52169.50;2104950;28;33237;-72
2023/03/18 03:39:54;;;;;;;7.05;3.63;;;;;;;-146.25;82.14;52228.28;2115156;28;20032;-72
2023/03/18 03:40:57;;;;;;;7.82;4.05;;;;;;;-146.25;82.09;52248.56;2103822;28;20048;-73
2023/03/18 03:41:59;;;;;;;7.25;3.60;;;;;;;-146.25;82.10;52212.06;2104479;28;30493;-73
2023/03/18 03:43:02;;;;;;;7.60;3.83;;;;;;;-146.25;82.18;52226.25;2104693;28;21014;-73
2023/03/18 03:44:05;;;;;;;6.65;3.30;;;;;;;-146.25;82.51;52206.00;2096507;28;20791;-72
2023/03/18 03:45:08;;;;;;;7.25;3.92;;;;;;;-146.25;82.15;52212.06;2104435;28;29463;-72
2023/03/18 03:46:10;;;;;;;9.23;4.18;;;;;;;-146.25;82.25;52228.28;2104553;28;20127;-73
2023/03/18 03:47:13;;;;;;;8.80;4.05;;;;;;;-146.25;82.53;52234.38;2096644;28;20041;-73
2023/03/18 03:48:15;;;;;;;8.82;4.15;;;;;;;-146.25;82.64;52230.31;2096319;28;20138;-73
2023/03/18 03:49:18;;;;;;;13.35;4.65;;;;;;;-146.25;83.20;52252.63;2088116;28;20045;-73
2023/03/18 03:50:21;;;;;;;10.85;4.03;;;;;;;-146.25;82.87;52238.44;2104846;28;20067;-73
2023/03/18 03:51:22;;;;;;;9.48;4.28;;;;;;;-146.25;83.24;52238.44;2113494;28;20036;-73
2023/03/18 03:52:28;;;;;;;12.82;4.22;;;;;;;-146.25;83.11;52238.44;2104438;28;20033;-73
2023/03/18 03:53:33;;;;;;;9.55;4.32;;;;;;;-146.25;83.51;52240.47;2103836;28;23204;-73
2023/03/18 03:54:35;;;;;;;9.73;4.10;;;;;;;-146.25;83.64;52232.34;2105195;28;20037;-73
2023/03/18 03:55:36;;;;;;;10.10;4.60;;;;;;;-146.25;83.46;52262.75;2104767;28;20862;-72
2023/03/18 03:56:38;;;;;;;9.07;3.97;;;;;;;-146.25;83.57;52256.69;2088127;28;20042;-73
2023/03/18 03:57:41;;;;;;;8.88;4.38;;;;;;;-146.25;83.91;52226.25;2096698;28;20183;-72
2023/03/18 03:58:43;;;;;;;9.15;4.30;;;;;;;-146.25;83.24;52254.66;2112729;28;20151;-73
2023/03/18 03:59:46;;;;;;;9.00;4.97;;;;;;;-146.25;84.51;52242.50;2087751;28;20046;-72
2023/03/18 04:00:54;;;;;;;9.98;4.50;;;;;;;-146.25;84.16;52210.03;2084619;28;20172;-72
2023/03/18 04:01:56;;;;;;;13.18;4.25;;;;;;;-146.25;84.65;52228.28;2095753;28;20175;-73
2023/03/18 04:02:59;;;;;;;8.82;4.43;;;;;;;-146.25;84.81;52218.16;2093843;28;20049;-73
2023/03/18 04:04:02;;;;;;;9.20;5.00;;;;;;;-146.25;84.41;52250.59;2087792;28;20162;-73
2023/03/18 04:05:08;;;;;;;7.75;4.32;;;;;;;-146.25;84.42;52220.19;2095287;28;20918;-73
2023/03/18 04:06:10;;;;;;;13.95;4.53;;;;;;;-146.25;84.89;52238.44;2094956;28;20048;-73
2023/03/18 04:07:19;;;;;;;11.95;4.40;;;;;;;-146.25;84.96;52214.09;2096750;28;20053;-72
2023/03/18 04:08:21;;;;;;;8.13;4.80;;;;;;;-146.25;84.61;52272.91;2104657;28;20127;-72
2023/03/18 04:09:23;;;;;;;11.23;4.75;;;;;;;-146.25;85.05;52242.50;2104544;28;23313;-73
2023/03/18 04:10:27;;;;;;;9.82;5.10;;;;;;;-146.25;85.38;52236.41;2105483;28;22986;-72
2023/03/18 04:11:28;;;;;;;8.70;4.60;;;;;;;-146.25;85.07;52193.81;2104263;28;27473;-73
2023/03/18 04:12:30;;;;;;;8.77;4.15;;;;;;;-146.25;84.95;52258.72;2104652;28;20825;-72
2023/03/18 04:13:34;;;;;;;10.30;5.05;;;;;;;-146.25;85.12;52242.50;2111791;28;20040;-73
2023/03/18 04:14:38;;;;;;;8.25;4.57;;;;;;;-146.25;85.31;52248.56;2112245;28;20040;-73
2023/03/18 04:15:39;;;;;;;10.38;5.18;;;;;;;-146.25;85.33;52236.41;2096409;28;20030;-73
2023/03/18 04:16:45;;;;;;;6.45;4.35;;;;;;;-146.25;84.88;52230.31;2095675;28;20107;-73
2023/03/18 04:17:49;;;;;;;7.30;4.55;;;;;;;-146.25;85.04;52226.25;2096668;28;20060;-73
2023/03/18 04:18:54;;;;;;;9.70;4.93;;;;;;;-146.25;85.06;52228.28;2096597;28;20949;-73
2023/03/18 04:19:58;;;;;;;12.18;5.55;;;;;;;-146.25;85.08;52226.25;2096740;28;20873;-73
2023/03/18 04:21:03;;;;;;;9.68;5.03;;;;;;;-146.25;85.67;52254.66;2104859;28;20242;-73
2023/03/18 04:22:23;;;;;;;12.10;5.10;;;;;;;-146.25;86.00;52238.44;2113703;28;20841;-73
2023/03/18 04:23:27;;;;;;;10.63;4.70;;;;;;;-146.25;86.37;52252.63;2103396;28;20036;-73
2023/03/18 04:24:30;;;;;;;9.40;5.15;;;;;;;-146.25;86.49;52214.09;2096795;28;20205;-72
2023/03/18 04:25:34;;;;;;;11.73;5.13;;;;;;;-146.25;86.08;52254.66;2095819;28;20041;-73
2023/03/18 04:26:35;;;;;;;11.88;5.05;;;;;;;-146.25;86.70;52240.47;2095761;28;27690;-73
2023/03/18 04:27:39;;;;;;;8.82;4.57;;;;;;;-146.25;87.25;52242.50;2104412;28;20158;-73
2023/03/18 04:28:46;;;;;;;7.13;4.80;;;;;;;-146.25;87.55;52222.22;2104455;28;20076;-73
2023/03/18 04:29:49;;;;;;;9.20;4.85;;;;;;;-146.25;87.26;52222.22;2095908;28;20896;-73
2023/03/18 04:30:52;;;;;;;11.82;5.32;;;;;;;-146.25;87.34;52220.19;2091924;28;20037;-72
2023/03/18 04:31:55;;;;;;;12.82;5.55;;;;;;;-146.25;88.06;52242.50;2087727;28;20041;-73
2023/03/18 04:33:02;;;;;;;11.30;5.57;;;;;;;-146.25;87.62;52203.97;2095852;28;20045;-73
2023/03/18 04:34:05;;;;;;;12.70;5.50;;;;;;;-146.25;88.51;52254.66;2096387;28;20883;-73
2023/03/18 04:35:08;;;;;;;11.48;5.47;;;;;;;-146.25;88.43;52250.59;2079300;28;20638;-73
2023/03/18 04:36:09;;;;;;;10.93;5.55;;;;;;;-146.25;88.69;52246.53;2081152;28;20053;-73
2023/03/18 04:37:13;;;;;;;11.60;5.63;;;;;;;-146.25;88.92;52228.28;2088367;28;21020;-73
2023/03/18 04:38:18;;;;;;;12.23;5.60;;;;;;;-146.25;89.11;52218.16;2097956;28;20888;-73
2023/03/18 04:39:23;;;;;;;14.38;5.78;;;;;;;-146.25;89.15;52210.03;2105489;28;20033;-73
2023/03/18 04:40:25;;;;;;;12.15;5.32;;;;;;;-146.25;89.64;52220.19;2104603;28;32474;-73
2023/03/18 04:41:27;;;;;;;9.60;5.75;;;;;;;-146.25;89.80;52210.03;2107859;28;26708;-72
2023/03/18 04:42:32;;;;;;;10.43;5.50;;;;;;;-146.25;89.86;52228.28;2114331;28;20805;-73
2023/03/18 04:43:36;;;;;;;9.98;6.00;;;;;;;-146.25;89.10;52224.25;2104617;28;20168;-73
2023/03/18 04:44:39;;;;;;;11.88;5.53;;;;;;;-146.25;90.03;52242.50;2088845;28;20176;-73
2023/03/18 04:45:42;;;;;;;12.05;6.03;;;;;;;-146.25;89.79;52201.94;2092349;28;20079;-72
2023/03/18 04:46:45;;;;;;;11.63;6.40;;;;;;;-146.25;90.07;52252.63;2102237;28;20056;-71
2023/03/18 04:47:46;;;;;;;9.05;5.40;;;;;;;-146.25;90.49;52240.47;2096308;28;20049;-73
2023/03/18 04:48:48;;;;;;;9.80;6.07;;;;;;;-146.25;90.43;52230.31;2101465;28;20155;-72
2023/03/18 04:49:50;;;;;;;11.27;5.80;;;;;;;-146.25;90.33;52258.72;2105731;28;20075;-73
2023/03/18 04:50:53;;;;;;;11.07;5.95;;;;;;;-146.25;90.33;52244.50;2097372;28;20048;-72
2023/03/18 04:51:59;;;;;;;10.48;5.63;;;;;;;-146.25;89.96;52246.53;2096861;28;20041;-72
2023/03/18 04:53:05;;;;;;;13.73;5.82;;;;;;;-146.25;90.22;52212.06;2097732;28;20029;-73
2023/03/18 04:54:07;;;;;;;10.65;6.22;;;;;;;-146.25;90.01;52244.50;2105315;28;20173;-73
2023/03/18 04:55:09;;;;;;;11.68;5.75;;;;;;;-146.25;90.67;52248.56;2097595;28;21035;-72
2023/03/18 04:56:14;;;;;;;9.30;5.47;;;;;;;-146.25;90.13;52266.81;2090182;28;20045;-73
2023/03/18 04:57:21;;;;;;;8.35;5.18;;;;;;;-146.25;90.50;52242.50;2097450;28;20895;-72